createdAt,value
2022-08-28T00:01:01.503Z,965.67
2022-08-28T00:03:32.647Z,959.43
2022-08-28T00:06:03.869Z,940.40
2022-08-28T00:08:36.848Z,960.03
2022-08-28T00:11:07.877Z,938.45
2022-08-28T00:13:39.570Z,945.33
2022-08-28T00:16:10.353Z,946.70
2022-08-28T00:18:40.743Z,962.70
2022-08-28T00:21:12.475Z,977.43
2022-08-28T00:23:43.341Z,969.88
2022-08-28T00:26:34.551Z,968.00
2022-08-28T00:29:06.399Z,955.22
2022-08-28T00:31:40.654Z,977.10
2022-08-28T00:34:11.952Z,965.75
2022-08-28T00:36:45.133Z,976.42
2022-08-28T00:39:15.518Z,969.58
2022-08-28T00:41:46.816Z,978.83
2022-08-28T00:44:26.639Z,949.85
2022-08-28T00:46:58.699Z,969.35
2022-08-28T00:49:33.764Z,971.22
2022-08-28T00:52:11.858Z,981.97
2022-08-28T00:54:59.161Z,965.83
2022-08-28T00:57:52.564Z,982.03
2022-08-28T01:00:22.580Z,969.28
2022-08-28T01:02:54.823Z,990.40
2022-08-28T01:05:26.420Z,987.17
2022-08-28T01:07:58.147Z,986.00
2022-08-28T01:10:31.704Z,987.95
2022-08-28T01:13:03.350Z,988.15
2022-08-28T01:15:39.902Z,989.78
2022-08-28T01:18:16.134Z,991.45
2022-08-28T01:21:21.343Z,993.42
2022-08-28T01:23:57.163Z,980.97
2022-08-28T01:26:30.908Z,1002.20
2022-08-28T01:29:02.552Z,994.72
2022-08-28T01:31:34.684Z,997.05
2022-08-28T01:34:05.758Z,1001.95
2022-08-28T01:36:36.122Z,991.90
2022-08-28T01:39:11.514Z,985.23
2022-08-28T01:41:44.873Z,993.08
2022-08-28T01:44:20.480Z,995.88
2022-08-28T01:46:50.724Z,991.95
2022-08-28T01:49:21.549Z,986.58
2022-08-28T01:51:52.331Z,987.30
2022-08-28T01:54:24.952Z,997.05
2022-08-28T01:56:55.717Z,990.23
2022-08-28T01:59:26.474Z,977.50
2022-08-28T02:01:57.526Z,1002.97
2022-08-28T02:04:31.905Z,997.55
2022-08-28T02:07:02.636Z,998.88
2022-08-28T02:09:32.801Z,992.10
2022-08-28T02:12:03.204Z,997.60
2022-08-28T02:14:33.434Z,989.23
2022-08-28T02:17:04.798Z,992.17
2022-08-28T02:19:35.169Z,998.47
2022-08-28T02:22:10.464Z,997.33
2022-08-28T02:24:40.631Z,996.95
2022-08-28T02:27:11.247Z,1004.45
2022-08-28T02:29:41.530Z,993.50
2022-08-28T02:32:11.771Z,1000.28
2022-08-28T02:34:42.628Z,989.17
2022-08-28T02:37:31.315Z,992.30
2022-08-28T02:40:02.713Z,974.08
2022-08-28T02:42:33.189Z,993.50
2022-08-28T02:45:03.338Z,993.13
2022-08-28T02:47:34.091Z,1015.95
2022-08-28T02:50:23.998Z,1005.97
2022-08-28T02:52:54.663Z,999.10
2022-08-28T02:55:31.359Z,988.58
2022-08-28T02:58:04.206Z,996.60
2022-08-28T03:00:35.499Z,998.97
2022-08-28T03:05:35.965Z,984.75
2022-08-28T03:08:06.835Z,1013.80
2022-08-28T03:10:37.330Z,990.35
2022-08-28T03:13:08.303Z,996.77
2022-08-28T03:15:40.906Z,963.00
2022-08-28T03:18:11.718Z,985.90
2022-08-28T03:20:43.317Z,981.85
2022-08-28T03:23:28.968Z,1001.70
2022-08-28T03:26:02.430Z,993.83
2022-08-28T03:28:36.771Z,1000.15
2022-08-28T03:31:08.294Z,995.47
2022-08-28T03:33:41.920Z,1000.08
2022-08-28T03:36:20.109Z,980.30
2022-08-28T03:38:51.513Z,992.65
2022-08-28T03:43:53.183Z,1015.85
2022-08-28T03:46:25.950Z,973.50
2022-08-28T03:48:57.916Z,985.72
2022-08-28T03:51:33.847Z,1000.83
2022-08-28T03:54:06.201Z,999.35
2022-08-28T03:56:36.385Z,1004.33
2022-08-28T03:59:07.638Z,990.58
2022-08-28T04:04:12.455Z,998.75
2022-08-28T04:06:43.149Z,988.03
2022-08-28T04:09:13.241Z,996.37
2022-08-28T04:11:46.701Z,991.95
2022-08-28T04:14:16.997Z,979.13
2022-08-28T04:16:47.159Z,986.47
2022-08-28T04:19:17.328Z,1004.03
2022-08-28T04:21:47.605Z,990.10
2022-08-28T04:24:17.835Z,996.45
2022-08-28T04:26:48.166Z,977.92
2022-08-28T04:29:18.377Z,1003.17
2022-08-28T04:31:48.903Z,1004.88
2022-08-28T04:37:04.376Z,988.25
2022-08-28T04:39:36.159Z,1003.92
2022-08-28T04:42:06.437Z,1000.17
2022-08-28T04:44:36.825Z,993.63
2022-08-28T04:47:07.237Z,990.27
2022-08-28T04:49:37.907Z,1003.03
2022-08-28T04:52:08.185Z,1007.30
2022-08-28T04:54:38.562Z,1000.20
2022-08-28T04:57:08.859Z,999.85
2022-08-28T04:59:39.823Z,994.47
2022-08-28T05:02:10.514Z,1001.58
2022-08-28T05:04:40.863Z,988.58
2022-08-28T05:07:11.174Z,990.95
2022-08-28T05:09:41.196Z,996.25
2022-08-28T05:12:11.844Z,994.33
2022-08-28T05:14:45.613Z,990.77
2022-08-28T05:17:16.475Z,991.45
2022-08-28T05:45:36.922Z,1028.47
2022-08-28T05:48:07.765Z,1034.32
2022-08-28T05:50:44.512Z,1044.18
2022-08-28T05:53:20.269Z,1040.25
2022-08-28T05:56:08.625Z,1023.17
2022-08-28T05:58:39.896Z,1022.03
2022-08-28T06:03:44.685Z,1018.85
2022-08-28T06:06:15.177Z,1037.38
2022-08-28T06:08:58.157Z,1035.60
2022-08-28T06:11:32.710Z,1041.28
2022-08-28T06:14:04.682Z,1045.05
2022-08-28T06:16:35.342Z,1050.35
2022-08-28T06:19:05.828Z,1054.68
2022-08-28T06:21:35.970Z,1022.70
2022-08-28T06:27:07.894Z,6.93
2022-08-28T06:39:18.217Z,15.23
2022-08-28T06:41:48.456Z,6.65
2022-08-28T06:44:22.682Z,11.45
2022-08-28T06:46:55.878Z,5.45
2022-08-28T06:49:26.022Z,7.43
2022-08-28T06:51:56.067Z,4.50
2022-08-28T06:54:26.146Z,4.10
2022-08-28T06:56:56.390Z,6.05
2022-08-28T06:59:26.559Z,6.33
2022-08-28T07:02:15.676Z,326.48
2022-08-28T07:04:45.829Z,9.13
2022-08-28T07:07:33.899Z,13.63
2022-08-28T07:10:04.053Z,6.90
2022-08-28T07:12:34.092Z,6.07
2022-08-28T07:15:06.435Z,6.28
2022-08-28T07:17:36.640Z,14.68
2022-08-28T07:20:10.194Z,6.35
2022-08-28T07:22:43.160Z,4.47
2022-08-28T07:25:13.787Z,7.85
2022-08-28T07:27:43.943Z,5.17
2022-08-28T07:30:15.368Z,5.13
2022-08-28T07:32:45.776Z,6.10
2022-08-28T07:35:16.049Z,5.10
2022-08-28T07:37:47.494Z,4.75
2022-08-28T07:40:17.844Z,5.33
2022-08-28T07:43:06.465Z,6.20
2022-08-28T07:45:37.906Z,5.47
2022-08-28T07:48:11.685Z,5.88
2022-08-28T07:50:42.095Z,5.03
2022-08-28T07:53:13.286Z,7.57
2022-08-28T07:55:43.312Z,4.47
2022-08-28T07:58:14.219Z,8.00
2022-08-28T08:03:14.586Z,4.43
2022-08-28T08:05:44.809Z,4.40
2022-08-28T08:08:15.085Z,6.15
2022-08-28T08:10:45.367Z,5.33
2022-08-28T08:13:17.087Z,4.32
2022-08-28T08:15:47.340Z,5.32
2022-08-28T08:18:45.915Z,4.10
2022-08-28T08:21:17.865Z,4.65
2022-08-28T08:23:49.308Z,4.63
2022-08-28T08:28:52.844Z,5.35
2022-08-28T08:31:29.814Z,6.13
2022-08-28T08:34:04.203Z,5.25
2022-08-28T08:36:36.360Z,7.22
2022-08-28T08:39:09.688Z,5.22
2022-08-28T08:41:50.183Z,5.63
2022-08-28T08:44:43.679Z,5.50
2022-08-28T08:47:24.297Z,8.70
2022-08-28T08:49:59.423Z,5.17
2022-08-28T08:52:49.530Z,7.60
2022-08-28T08:55:34.195Z,14.85
2022-08-28T08:58:11.971Z,4.70
2022-08-28T09:01:06.882Z,5.20
2022-08-28T09:03:57.979Z,5.82
2022-08-28T09:06:43.925Z,6.22
2022-08-28T09:09:30.199Z,7.35
2022-08-28T09:12:12.641Z,9.18
2022-08-28T09:14:48.376Z,6.93
2022-08-28T09:17:22.247Z,6.72
2022-08-28T09:19:52.450Z,8.10
2022-08-28T09:22:24.621Z,6.68
2022-08-28T09:24:54.968Z,6.07
2022-08-28T09:27:33.239Z,6.50
2022-08-28T09:30:11.002Z,5.88
2022-08-28T09:32:46.495Z,10.65
2022-08-28T09:35:30.219Z,6.53
2022-08-28T09:38:21.588Z,6.97
2022-08-28T09:43:42.001Z,7.72
2022-08-28T09:46:24.281Z,9.05
2022-08-28T09:48:54.705Z,6.55
2022-08-28T09:51:25.181Z,9.40
2022-08-28T09:53:58.235Z,8.50
2022-08-28T09:56:34.201Z,6.50
2022-08-28T09:59:13.253Z,6.43
2022-08-28T10:02:12.521Z,6.30
2022-08-28T10:05:10.906Z,8.00
2022-08-28T10:07:44.471Z,6.25
2022-08-28T10:10:18.618Z,7.68
2022-08-28T10:13:13.368Z,12.15
2022-08-28T10:16:12.515Z,7.32
2022-08-28T10:18:59.042Z,5.82
2022-08-28T10:21:37.980Z,6.60
2022-08-28T10:24:36.033Z,6.95
2022-08-28T10:27:35.270Z,6.97
2022-08-28T10:30:15.821Z,6.53
2022-08-28T10:33:03.665Z,6.77
2022-08-28T10:35:54.693Z,7.10
2022-08-28T10:38:53.114Z,9.35
2022-08-28T10:41:50.909Z,7.95
2022-08-28T10:44:28.337Z,8.52
2022-08-28T10:47:00.772Z,8.45
2022-08-28T10:49:49.657Z,11.10
2022-08-28T10:52:52.063Z,11.88
2022-08-28T10:55:30.103Z,11.00
2022-08-28T10:58:04.807Z,10.18
2022-08-28T11:03:34.289Z,11.05
2022-08-28T11:06:31.535Z,8.50
2022-08-28T11:09:26.658Z,10.93
2022-08-28T11:12:03.210Z,9.45
2022-08-28T11:14:48.446Z,8.85
2022-08-28T11:17:25.108Z,11.43
2022-08-28T11:20:13.560Z,11.70
2022-08-28T11:23:02.723Z,14.73
2022-08-28T11:25:37.196Z,10.48
2022-08-28T11:28:19.726Z,11.00
2022-08-28T11:31:19.255Z,11.73
2022-08-28T11:34:02.368Z,13.40
2022-08-28T11:36:32.567Z,13.38
2022-08-28T11:39:20.328Z,11.50
2022-08-28T11:42:15.926Z,11.90
2022-08-28T11:44:48.181Z,11.32
2022-08-28T11:47:46.509Z,9.70
2022-08-28T11:50:27.147Z,10.85
2022-08-28T11:53:15.583Z,19.02
2022-08-28T11:59:13.327Z,18.20
2022-08-28T12:06:51.715Z,14.45
2022-08-28T12:09:45.280Z,15.83
2022-08-28T12:15:02.409Z,15.02
2022-08-28T12:17:45.776Z,11.45
2022-08-28T12:20:26.115Z,14.93
2022-08-28T12:22:59.136Z,13.00
2022-08-28T12:25:48.816Z,15.25
2022-08-28T12:28:24.699Z,15.73
2022-08-28T12:31:16.392Z,14.67
2022-08-28T12:34:03.444Z,13.30
2022-08-28T12:36:34.421Z,13.55
2022-08-28T12:39:06.164Z,13.55
2022-08-28T12:41:36.500Z,12.25
2022-08-28T12:44:08.635Z,15.00
2022-08-28T12:46:45.232Z,14.85
2022-08-28T12:49:36.359Z,18.45
2022-08-28T12:52:16.643Z,15.60
2022-08-28T12:54:51.986Z,18.25
2022-08-28T12:57:25.529Z,18.00
2022-08-28T12:59:58.519Z,15.57
2022-08-28T13:02:38.225Z,16.38
2022-08-28T13:05:11.885Z,14.13
2022-08-28T13:07:52.093Z,15.80
2022-08-28T13:10:27.132Z,15.30
2022-08-28T13:13:20.752Z,12.90
2022-08-28T13:15:53.128Z,14.02
2022-08-28T13:18:59.280Z,13.27
2022-08-28T13:21:34.897Z,14.10
2022-08-28T13:24:29.836Z,14.65
2022-08-28T13:27:04.738Z,12.30
2022-08-28T13:29:35.573Z,15.95
2022-08-28T13:32:09.912Z,13.55
2022-08-28T13:34:47.913Z,12.70
2022-08-28T13:37:47.640Z,13.67
2022-08-28T13:40:53.265Z,13.75
2022-08-28T13:43:13.100Z,15.00
2022-08-28T13:45:46.715Z,14.13
2022-08-28T13:48:30.625Z,14.55
2022-08-28T13:51:12.049Z,14.20
2022-08-28T13:53:49.926Z,14.35
2022-08-28T13:56:21.903Z,13.35
2022-08-28T13:58:57.377Z,13.32
2022-08-28T14:01:51.592Z,12.40
2022-08-28T14:04:40.158Z,14.90
2022-08-28T14:07:10.761Z,14.60
2022-08-28T14:09:42.030Z,14.53
2022-08-28T14:12:13.579Z,13.73
2022-08-28T14:14:44.483Z,14.15
2022-08-28T14:17:15.233Z,13.35
2022-08-28T14:19:45.273Z,13.30
2022-08-28T14:22:15.783Z,13.48
2022-08-28T14:24:46.220Z,12.75
2022-08-28T14:27:16.477Z,13.83
2022-08-28T14:32:32.333Z,14.38
2022-08-28T14:35:02.619Z,14.38
2022-08-28T14:37:32.754Z,14.13
2022-08-28T14:40:02.803Z,14.48
2022-08-28T14:42:32.788Z,15.85
2022-08-28T14:45:02.926Z,13.90
2022-08-28T14:47:33.040Z,14.75
2022-08-28T14:50:03.293Z,14.00
2022-08-28T14:52:33.755Z,15.37
2022-08-28T14:55:03.912Z,14.00
2022-08-28T14:57:34.102Z,13.77
2022-08-28T15:00:05.661Z,13.50
2022-08-28T15:02:35.859Z,14.85
2022-08-28T15:05:06.297Z,14.70
2022-08-28T15:07:36.544Z,14.03
2022-08-28T15:10:07.500Z,17.23
2022-08-28T15:12:37.768Z,14.57
2022-08-28T15:15:08.911Z,19.10
2022-08-28T15:17:38.944Z,14.97
2022-08-28T15:20:09.322Z,15.88
2022-08-28T15:22:39.699Z,14.40
2022-08-28T15:25:10.532Z,15.32
2022-08-28T15:27:41.420Z,20.83
2022-08-28T15:30:12.332Z,16.45
2022-08-28T15:32:44.366Z,16.80
2022-08-28T15:35:14.958Z,16.48
2022-08-28T15:37:45.162Z,17.50
2022-08-28T15:40:33.886Z,17.58
2022-08-28T15:48:40.524Z,17.40
2022-08-28T15:51:10.927Z,19.30
2022-08-28T15:53:42.034Z,19.55
2022-08-28T15:56:31.115Z,17.42
2022-08-28T16:01:31.574Z,19.08
2022-08-28T16:04:01.727Z,20.23
2022-08-28T16:06:31.906Z,18.63
2022-08-28T16:09:02.090Z,20.88
2022-08-28T16:11:33.882Z,18.38
2022-08-28T16:14:07.357Z,19.05
2022-08-28T16:16:37.727Z,18.10
2022-08-28T16:19:10.384Z,17.88
2022-08-28T16:21:40.835Z,18.25
2022-08-28T16:24:11.165Z,18.53
2022-08-28T16:26:42.568Z,16.08
2022-08-28T16:29:12.812Z,15.30
2022-08-28T16:31:43.519Z,16.33
2022-08-28T16:34:13.675Z,19.98
2022-08-28T16:36:43.823Z,16.13
2022-08-28T16:39:14.436Z,19.95
2022-08-28T16:41:48.382Z,16.83
2022-08-28T16:44:30.322Z,16.25
2022-08-28T16:47:00.741Z,21.77
2022-08-28T16:49:34.134Z,23.40
2022-08-28T16:52:04.416Z,22.77
2022-08-28T16:54:37.788Z,21.37
2022-08-28T16:57:18.158Z,26.67
2022-08-28T16:59:48.566Z,21.15
2022-08-28T17:02:27.121Z,22.38
2022-08-28T17:05:02.557Z,26.63
2022-08-28T17:07:33.088Z,25.83
2022-08-28T17:10:03.927Z,23.75
2022-08-28T17:12:34.513Z,22.02
2022-08-28T17:15:04.897Z,23.83
2022-08-28T17:17:35.298Z,21.63
2022-08-28T17:20:07.573Z,23.23
2022-08-28T17:22:37.909Z,24.35
2022-08-28T17:25:15.742Z,25.00
2022-08-28T17:27:46.117Z,22.63
2022-08-28T17:30:17.762Z,22.25
2022-08-28T17:32:48.736Z,23.38
2022-08-28T17:35:24.281Z,19.75
2022-08-28T17:37:56.270Z,20.52
2022-08-28T17:40:26.577Z,23.98
2022-08-28T17:42:56.836Z,18.92
2022-08-28T17:45:26.866Z,21.65
2022-08-28T17:48:00.263Z,21.65
2022-08-28T17:50:30.475Z,24.83
2022-08-28T17:53:18.604Z,21.25
2022-08-28T17:55:49.502Z,19.60
2022-08-28T17:58:19.729Z,25.33
2022-08-28T18:00:50.504Z,23.35
2022-08-28T18:03:21.603Z,19.48
2022-08-28T18:05:53.836Z,17.48
2022-08-28T18:08:24.040Z,18.90
2022-08-28T18:10:54.308Z,18.48
